sensor_id;sensor_type;location;lat;lon;timestamp;pressure;altitude;pressure_sealevel;temperature;humidity
8320;BME280;4197;42.130;24.746;2023-03-14T00:01:44;99989.28;;;2.53;70.34
8320;BME280;4197;42.130;24.746;2023-03-14T00:04:12;99985.81;;;2.53;70.70
8320;BME280;4197;42.130;24.746;2023-03-14T00:06:42;99987.44;;;2.49;71.28
8320;BME280;4197;42.130;24.746;2023-03-14T00:09:10;99980.50;;;2.48;71.28
8320;BME280;4197;42.130;24.746;2023-03-14T00:11:38;99979.56;;;2.38;71.57
8320;BME280;4197;42.130;24.746;2023-03-14T00:14:07;99970.44;;;2.39;71.95
8320;BME280;4197;42.130;24.746;2023-03-14T00:16:35;99969.50;;;2.49;71.79
8320;BME280;4197;42.130;24.746;2023-03-14T00:19:03;99970.59;;;2.48;72.27
8320;BME280;4197;42.130;24.746;2023-03-14T00:21:31;99961.25;;;2.45;72.72
8320;BME280;4197;42.130;24.746;2023-03-14T00:24:01;99954.06;;;2.41;72.58
8320;BME280;4197;42.130;24.746;2023-03-14T00:26:29;99952.72;;;2.43;72.55
8320;BME280;4197;42.130;24.746;2023-03-14T00:28:57;99956.13;;;2.49;72.89
8320;BME280;4197;42.130;24.746;2023-03-14T00:31:25;99950.94;;;2.58;72.06
8320;BME280;4197;42.130;24.746;2023-03-14T00:33:54;99952.16;;;2.65;71.43
8320;BME280;4197;42.130;24.746;2023-03-14T00:36:22;99942.66;;;2.54;71.23
8320;BME280;4197;42.130;24.746;2023-03-14T00:38:51;99939.06;;;2.45;71.33
8320;BME280;4197;42.130;24.746;2023-03-14T00:41:22;99934.97;;;2.29;71.72
8320;BME280;4197;42.130;24.746;2023-03-14T00:43:51;99929.69;;;2.23;72.90
8320;BME280;4197;42.130;24.746;2023-03-14T00:46:19;99932.72;;;2.17;72.59
8320;BME280;4197;42.130;24.746;2023-03-14T00:48:48;99935.66;;;2.15;73.69
8320;BME280;4197;42.130;24.746;2023-03-14T00:51:16;99919.66;;;2.10;73.71
8320;BME280;4197;42.130;24.746;2023-03-14T00:53:44;99920.69;;;2.14;73.53
8320;BME280;4197;42.130;24.746;2023-03-14T00:56:13;99918.06;;;2.09;73.73
8320;BME280;4197;42.130;24.746;2023-03-14T00:58:43;99919.50;;;2.01;74.33
8320;BME280;4197;42.130;24.746;2023-03-14T01:01:14;99911.31;;;1.93;74.36
8320;BME280;4197;42.130;24.746;2023-03-14T01:03:43;99920.53;;;1.82;74.41
8320;BME280;4197;42.130;24.746;2023-03-14T01:06:13;99903.97;;;1.79;74.68
8320;BME280;4197;42.130;24.746;2023-03-14T01:08:42;99897.56;;;1.81;75.77
8320;BME280;4197;42.130;24.746;2023-03-14T01:11:13;99895.38;;;1.83;75.69
8320;BME280;4197;42.130;24.746;2023-03-14T01:13:42;99898.03;;;1.83;75.44
8320;BME280;4197;42.130;24.746;2023-03-14T01:16:13;99885.28;;;1.74;75.28
8320;BME280;4197;42.130;24.746;2023-03-14T01:18:42;99886.38;;;1.73;76.14
8320;BME280;4197;42.130;24.746;2023-03-14T01:21:13;99888.53;;;1.71;76.22
8320;BME280;4197;42.130;24.746;2023-03-14T01:23:42;99885.88;;;1.71;76.83
8320;BME280;4197;42.130;24.746;2023-03-14T01:26:13;99874.44;;;1.66;76.53
8320;BME280;4197;42.130;24.746;2023-03-14T01:28:41;99883.06;;;1.58;76.87
8320;BME280;4197;42.130;24.746;2023-03-14T01:31:12;99882.06;;;1.53;77.04
8320;BME280;4197;42.130;24.746;2023-03-14T01:33:40;99877.69;;;1.63;77.66
8320;BME280;4197;42.130;24.746;2023-03-14T01:36:10;99888.72;;;1.80;78.15
8320;BME280;4197;42.130;24.746;2023-03-14T01:38:40;99881.00;;;1.78;77.58
8320;BME280;4197;42.130;24.746;2023-03-14T01:41:14;99882.88;;;1.78;77.58
8320;BME280;4197;42.130;24.746;2023-03-14T01:43:44;99877.53;;;1.78;77.80
8320;BME280;4197;42.130;24.746;2023-03-14T01:46:18;99876.94;;;1.81;77.69
8320;BME280;4197;42.130;24.746;2023-03-14T01:48:51;99872.97;;;1.78;77.72
8320;BME280;4197;42.130;24.746;2023-03-14T01:51:26;99876.25;;;1.70;78.15
8320;BME280;4197;42.130;24.746;2023-03-14T01:53:59;99870.53;;;1.58;78.24
8320;BME280;4197;42.130;24.746;2023-03-14T01:56:30;99870.06;;;1.51;79.03
8320;BME280;4197;42.130;24.746;2023-03-14T01:58:59;99867.94;;;1.48;79.12
8320;BME280;4197;42.130;24.746;2023-03-14T02:01:30;99870.00;;;1.56;78.02
8320;BME280;4197;42.130;24.746;2023-03-14T02:04:01;99864.66;;;1.56;77.77
8320;BME280;4197;42.130;24.746;2023-03-14T02:06:37;99859.19;;;1.42;78.82
8320;BME280;4197;42.130;24.746;2023-03-14T02:09:08;99862.50;;;1.29;78.80
8320;BME280;4197;42.130;24.746;2023-03-14T02:11:36;99857.00;;;1.20;78.98
8320;BME280;4197;42.130;24.746;2023-03-14T02:14:04;99867.72;;;1.15;78.96
8320;BME280;4197;42.130;24.746;2023-03-14T02:16:35;99862.41;;;1.10;79.96
8320;BME280;4197;42.130;24.746;2023-03-14T02:19:06;99862.94;;;1.12;79.85
8320;BME280;4197;42.130;24.746;2023-03-14T02:21:44;99851.13;;;1.18;80.34
8320;BME280;4197;42.130;24.746;2023-03-14T02:24:20;99849.03;;;1.15;79.99
8320;BME280;4197;42.130;24.746;2023-03-14T02:27:15;99846.94;;;1.07;80.14
8320;BME280;4197;42.130;24.746;2023-03-14T02:29:49;99856.09;;;1.01;80.14
8320;BME280;4197;42.130;24.746;2023-03-14T02:32:21;99848.66;;;0.98;80.35
8320;BME280;4197;42.130;24.746;2023-03-14T02:34:52;99853.97;;;0.98;80.75
8320;BME280;4197;42.130;24.746;2023-03-14T02:37:26;99856.63;;;1.03;80.78
8320;BME280;4197;42.130;24.746;2023-03-14T02:39:58;99844.50;;;1.10;80.23
8320;BME280;4197;42.130;24.746;2023-03-14T02:42:27;99846.13;;;1.11;80.45
8320;BME280;4197;42.130;24.746;2023-03-14T02:47:52;99851.28;;;1.03;80.05
8320;BME280;4197;42.130;24.746;2023-03-14T02:50:24;99855.91;;;0.92;80.71
8320;BME280;4197;42.130;24.746;2023-03-14T02:52:54;99862.25;;;0.96;80.52
8320;BME280;4197;42.130;24.746;2023-03-14T02:55:22;99867.41;;;0.87;81.22
8320;BME280;4197;42.130;24.746;2023-03-14T02:57:53;99866.31;;;0.88;81.15
8320;BME280;4197;42.130;24.746;2023-03-14T03:00:21;99866.59;;;0.92;81.33
8320;BME280;4197;42.130;24.746;2023-03-14T03:02:50;99869.56;;;0.85;80.97
8320;BME280;4197;42.130;24.746;2023-03-14T03:05:18;99868.78;;;0.80;81.88
8320;BME280;4197;42.130;24.746;2023-03-14T03:07:46;99873.63;;;0.78;82.49
8320;BME280;4197;42.130;24.746;2023-03-14T03:10:15;99877.53;;;0.91;82.63
8320;BME280;4197;42.130;24.746;2023-03-14T03:12:43;99873.81;;;0.92;82.38
8320;BME280;4197;42.130;24.746;2023-03-14T03:15:13;99878.84;;;0.93;82.91
8320;BME280;4197;42.130;24.746;2023-03-14T03:17:41;99877.25;;;0.92;83.45
8320;BME280;4197;42.130;24.746;2023-03-14T03:20:10;99879.41;;;0.90;83.32
8320;BME280;4197;42.130;24.746;2023-03-14T03:22:39;99871.41;;;0.90;83.33
8320;BME280;4197;42.130;24.746;2023-03-14T03:25:08;99872.41;;;0.94;84.03
8320;BME280;4197;42.130;24.746;2023-03-14T03:27:37;99869.47;;;0.96;83.85
8320;BME280;4197;42.130;24.746;2023-03-14T03:30:06;99864.19;;;0.91;83.62
8320;BME280;4197;42.130;24.746;2023-03-14T03:32:38;99870.03;;;0.93;83.97
8320;BME280;4197;42.130;24.746;2023-03-14T03:35:06;99863.38;;;0.90;84.19
8320;BME280;4197;42.130;24.746;2023-03-14T03:37:35;99866.06;;;0.90;84.26
8320;BME280;4197;42.130;24.746;2023-03-14T03:40:04;99863.94;;;0.87;84.83
8320;BME280;4197;42.130;24.746;2023-03-14T03:42:33;99868.50;;;0.86;85.28
8320;BME280;4197;42.130;24.746;2023-03-14T03:45:03;99860.47;;;0.86;85.32
8320;BME280;4197;42.130;24.746;2023-03-14T03:47:31;99865.03;;;0.86;85.68
8320;BME280;4197;42.130;24.746;2023-03-14T03:50:01;99869.53;;;0.91;85.77
8320;BME280;4197;42.130;24.746;2023-03-14T03:52:29;99865.50;;;0.93;85.31
8320;BME280;4197;42.130;24.746;2023-03-14T03:54:57;99869.28;;;0.87;85.35
8320;BME280;4197;42.130;24.746;2023-03-14T03:57:25;99867.44;;;0.82;85.70
8320;BME280;4197;42.130;24.746;2023-03-14T03:59:53;99859.53;;;0.72;85.36
8320;BME280;4197;42.130;24.746;2023-03-14T04:02:21;99855.84;;;0.63;85.65
8320;BME280;4197;42.130;24.746;2023-03-14T04:04:50;99851.88;;;0.55;86.16
8320;BME280;4197;42.130;24.746;2023-03-14T04:07:20;99853.25;;;0.53;87.15
8320;BME280;4197;42.130;24.746;2023-03-14T04:09:48;99846.88;;;0.49;87.59
8320;BME280;4197;42.130;24.746;2023-03-14T04:12:17;99850.66;;;0.42;87.34
8320;BME280;4197;42.130;24.746;2023-03-14T04:14:45;99846.91;;;0.38;88.07
8320;BME280;4197;42.130;24.746;2023-03-14T04:17:13;99841.34;;;0.35;88.04
8320;BME280;4197;42.130;24.746;2023-03-14T04:19:41;99842.94;;;0.36;89.02
8320;BME280;4197;42.130;24.746;2023-03-14T04:22:09;99835.47;;;0.33;89.34
8320;BME280;4197;42.130;24.746;2023-03-14T04:24:39;99836.00;;;0.35;89.49
8320;BME280;4197;42.130;24.746;2023-03-14T04:27:07;99836.50;;;0.42;90.39
8320;BME280;4197;42.130;24.746;2023-03-14T04:29:35;99834.88;;;0.46;90.60
8320;BME280;4197;42.130;24.746;2023-03-14T04:32:03;99843.66;;;0.47;90.39
8320;BME280;4197;42.130;24.746;2023-03-14T04:34:32;99838.31;;;0.52;91.68
8320;BME280;4197;42.130;24.746;2023-03-14T04:37:00;99833.72;;;0.57;91.44
8320;BME280;4197;42.130;24.746;2023-03-14T04:39:28;99828.16;;;0.54;91.04
8320;BME280;4197;42.130;24.746;2023-03-14T04:41:58;99827.91;;;0.50;90.73
8320;BME280;4197;42.130;24.746;2023-03-14T04:44:26;99829.28;;;0.48;91.07
8320;BME280;4197;42.130;24.746;2023-03-14T04:46:54;99824.44;;;0.50;91.36
8320;BME280;4197;42.130;24.746;2023-03-14T04:49:22;99820.75;;;0.46;91.25
8320;BME280;4197;42.130;24.746;2023-03-14T04:51:51;99827.44;;;0.43;91.67
8320;BME280;4197;42.130;24.746;2023-03-14T04:54:19;99837.28;;;0.48;92.18
8320;BME280;4197;42.130;24.746;2023-03-14T04:56:47;99834.06;;;0.51;92.65
8320;BME280;4197;42.130;24.746;2023-03-14T04:59:17;99836.16;;;0.54;92.87
8320;BME280;4197;42.130;24.746;2023-03-14T05:01:45;99837.19;;;0.58;92.78
8320;BME280;4197;42.130;24.746;2023-03-14T05:04:16;99849.97;;;0.61;92.77
8320;BME280;4197;42.130;24.746;2023-03-14T05:06:44;99847.28;;;0.66;92.32
8320;BME280;4197;42.130;24.746;2023-03-14T05:09:12;99847.81;;;0.68;91.81
8320;BME280;4197;42.130;24.746;2023-03-14T05:11:42;99851.47;;;0.77;91.93
8320;BME280;4197;42.130;24.746;2023-03-14T05:14:10;99853.31;;;0.82;92.07
8320;BME280;4197;42.130;24.746;2023-03-14T05:16:40;99845.78;;;0.89;91.37
8320;BME280;4197;42.130;24.746;2023-03-14T05:19:08;99853.69;;;0.99;90.95
8320;BME280;4197;42.130;24.746;2023-03-14T05:21:37;99850.44;;;1.37;87.67
8320;BME280;4197;42.130;24.746;2023-03-14T05:24:06;99854.97;;;1.36;87.34
8320;BME280;4197;42.130;24.746;2023-03-14T05:26:35;99853.09;;;1.37;86.40
8320;BME280;4197;42.130;24.746;2023-03-14T05:29:03;99853.22;;;1.50;85.28
8320;BME280;4197;42.130;24.746;2023-03-14T05:31:32;99853.97;;;1.56;85.34
8320;BME280;4197;42.130;24.746;2023-03-14T05:34:03;99859.75;;;1.63;85.12
8320;BME280;4197;42.130;24.746;2023-03-14T05:36:31;99860.97;;;1.76;84.36
8320;BME280;4197;42.130;24.746;2023-03-14T05:39:00;99858.41;;;1.90;83.18
8320;BME280;4197;42.130;24.746;2023-03-14T05:41:29;99857.25;;;1.96;83.15
8320;BME280;4197;42.130;24.746;2023-03-14T05:43:57;99854.09;;;2.13;81.65
8320;BME280;4197;42.130;24.746;2023-03-14T05:46:25;99852.19;;;2.13;81.96
8320;BME280;4197;42.130;24.746;2023-03-14T05:48:54;99858.75;;;2.26;81.79
8320;BME280;4197;42.130;24.746;2023-03-14T05:51:25;99861.78;;;2.38;81.00
8320;BME280;4197;42.130;24.746;2023-03-14T05:53:53;99865.69;;;2.46;80.58
8320;BME280;4197;42.130;24.746;2023-03-14T05:56:22;99858.44;;;2.65;79.72
8320;BME280;4197;42.130;24.746;2023-03-14T05:58:51;99857.78;;;2.55;80.96
8320;BME280;4197;42.130;24.746;2023-03-14T06:01:20;99850.59;;;2.55;81.64
8320;BME280;4197;42.130;24.746;2023-03-14T06:03:48;99860.84;;;2.48;81.93
8320;BME280;4197;42.130;24.746;2023-03-14T06:06:17;99854.84;;;2.56;82.33
8320;BME280;4197;42.130;24.746;2023-03-14T06:08:47;99856.56;;;2.66;81.03
8320;BME280;4197;42.130;24.746;2023-03-14T06:11:15;99858.94;;;2.86;80.20
8320;BME280;4197;42.130;24.746;2023-03-14T06:13:44;99853.38;;;2.83;81.06
8320;BME280;4197;42.130;24.746;2023-03-14T06:16:13;99855.16;;;2.87;80.34
8320;BME280;4197;42.130;24.746;2023-03-14T06:18:43;99853.84;;;2.85;80.50
8320;BME280;4197;42.130;24.746;2023-03-14T06:21:14;99850.56;;;3.07;79.42
8320;BME280;4197;42.130;24.746;2023-03-14T06:23:47;99842.41;;;2.98;78.36
8320;BME280;4197;42.130;24.746;2023-03-14T06:26:15;99832.56;;;2.94;79.88
8320;BME280;4197;42.130;24.746;2023-03-14T06:28:43;99841.81;;;3.01;80.09
8320;BME280;4197;42.130;24.746;2023-03-14T06:31:12;99836.25;;;2.98;79.04
8320;BME280;4197;42.130;24.746;2023-03-14T06:33:40;99842.91;;;3.00;79.33
8320;BME280;4197;42.130;24.746;2023-03-14T06:36:09;99838.41;;;2.96;79.02
8320;BME280;4197;42.130;24.746;2023-03-14T06:38:37;99842.63;;;3.16;78.86
8320;BME280;4197;42.130;24.746;2023-03-14T06:41:07;99840.06;;;3.10;78.63
8320;BME280;4197;42.130;24.746;2023-03-14T06:43:36;99846.84;;;3.22;77.94
8320;BME280;4197;42.130;24.746;2023-03-14T06:46:04;99848.16;;;3.38;77.04
8320;BME280;4197;42.130;24.746;2023-03-14T06:48:33;99853.88;;;3.18;78.55
8320;BME280;4197;42.130;24.746;2023-03-14T06:51:01;99851.34;;;3.07;78.95
8320;BME280;4197;42.130;24.746;2023-03-14T06:53:29;99844.78;;;3.00;78.72
8320;BME280;4197;42.130;24.746;2023-03-14T06:55:57;99845.72;;;3.09;78.63
8320;BME280;4197;42.130;24.746;2023-03-14T06:58:27;99843.94;;;3.18;78.29
8320;BME280;4197;42.130;24.746;2023-03-14T07:00:56;99833.00;;;3.15;77.99
8320;BME280;4197;42.130;24.746;2023-03-14T07:03:25;99826.28;;;3.31;77.44
8320;BME280;4197;42.130;24.746;2023-03-14T07:05:54;99822.06;;;3.44;76.68
8320;BME280;4197;42.130;24.746;2023-03-14T07:08:22;99825.91;;;3.65;75.26
8320;BME280;4197;42.130;24.746;2023-03-14T07:10:51;99824.72;;;3.71;75.49
8320;BME280;4197;42.130;24.746;2023-03-14T07:13:19;99820.34;;;3.75;75.96
8320;BME280;4197;42.130;24.746;2023-03-14T07:16:08;99808.94;;;3.84;75.19
8320;BME280;4197;42.130;24.746;2023-03-14T07:18:36;99810.59;;;3.93;74.40
8320;BME280;4197;42.130;24.746;2023-03-14T07:21:05;99801.00;;;4.15;73.79
8320;BME280;4197;42.130;24.746;2023-03-14T07:23:34;99800.22;;;4.14;73.88
8320;BME280;4197;42.130;24.746;2023-03-14T07:26:02;99804.34;;;4.34;73.71
8320;BME280;4197;42.130;24.746;2023-03-14T07:28:31;99790.56;;;4.50;72.81
8320;BME280;4197;42.130;24.746;2023-03-14T07:30:59;99787.94;;;4.58;72.46
8320;BME280;4197;42.130;24.746;2023-03-14T07:33:29;99794.34;;;4.48;71.10
8320;BME280;4197;42.130;24.746;2023-03-14T07:35:57;99799.09;;;4.52;70.99
8320;BME280;4197;42.130;24.746;2023-03-14T07:38:27;99792.09;;;4.64;69.31
8320;BME280;4197;42.130;24.746;2023-03-14T07:40:59;99797.28;;;4.61;69.15
8320;BME280;4197;42.130;24.746;2023-03-14T07:43:28;99787.88;;;4.72;69.61
8320;BME280;4197;42.130;24.746;2023-03-14T07:45:57;99785.19;;;4.72;70.63
8320;BME280;4197;42.130;24.746;2023-03-14T07:48:25;99780.38;;;4.83;70.45
8320;BME280;4197;42.130;24.746;2023-03-14T07:50:55;99781.13;;;5.06;68.14
8320;BME280;4197;42.130;24.746;2023-03-14T07:53:24;99778.22;;;4.94;68.65
8320;BME280;4197;42.130;24.746;2023-03-14T07:55:53;99779.88;;;5.12;68.60
8320;BME280;4197;42.130;24.746;2023-03-14T07:58:22;99775.19;;;5.26;67.98
8320;BME280;4197;42.130;24.746;2023-03-14T08:00:51;99778.63;;;5.49;67.35
8320;BME280;4197;42.130;24.746;2023-03-14T08:03:20;99781.34;;;5.67;64.96
8320;BME280;4197;42.130;24.746;2023-03-14T08:05:49;99777.22;;;5.61;65.49
8320;BME280;4197;42.130;24.746;2023-03-14T08:08:19;99774.53;;;5.61;64.99
8320;BME280;4197;42.130;24.746;2023-03-14T08:10:48;99763.31;;;5.76;63.44
8320;BME280;4197;42.130;24.746;2023-03-14T08:13:16;99766.78;;;5.59;63.11
8320;BME280;4197;42.130;24.746;2023-03-14T08:15:47;99763.59;;;5.57;64.25
8320;BME280;4197;42.130;24.746;2023-03-14T08:18:16;99760.75;;;5.62;63.68
8320;BME280;4197;42.130;24.746;2023-03-14T08:20:44;99760.81;;;5.79;63.45
8320;BME280;4197;42.130;24.746;2023-03-14T08:23:12;99761.75;;;5.84;62.52
8320;BME280;4197;42.130;24.746;2023-03-14T08:25:41;99758.66;;;5.99;62.43
8320;BME280;4197;42.130;24.746;2023-03-14T08:28:10;99752.34;;;6.30;59.71
8320;BME280;4197;42.130;24.746;2023-03-14T08:30:38;99752.00;;;6.48;58.19
8320;BME280;4197;42.130;24.746;2023-03-14T08:33:07;99743.47;;;6.38;57.95
8320;BME280;4197;42.130;24.746;2023-03-14T08:35:35;99748.81;;;6.64;57.25
8320;BME280;4197;42.130;24.746;2023-03-14T08:38:04;99750.84;;;6.67;57.05
8320;BME280;4197;42.130;24.746;2023-03-14T08:40:33;99737.53;;;6.79;56.40
8320;BME280;4197;42.130;24.746;2023-03-14T08:43:04;99741.78;;;6.89;55.80
8320;BME280;4197;42.130;24.746;2023-03-14T08:45:32;99737.00;;;6.95;55.41
8320;BME280;4197;42.130;24.746;2023-03-14T08:48:01;99739.22;;;7.01;55.29
8320;BME280;4197;42.130;24.746;2023-03-14T08:50:29;99723.50;;;6.95;55.00
8320;BME280;4197;42.130;24.746;2023-03-14T08:52:58;99718.94;;;6.86;55.34
8320;BME280;4197;42.130;24.746;2023-03-14T08:55:26;99715.38;;;7.03;55.70
8320;BME280;4197;42.130;24.746;2023-03-14T08:57:56;99701.19;;;7.24;54.30
8320;BME280;4197;42.130;24.746;2023-03-14T09:00:26;99705.94;;;7.27;54.16
8320;BME280;4197;42.130;24.746;2023-03-14T09:02:54;99704.72;;;7.15;54.17
8320;BME280;4197;42.130;24.746;2023-03-14T09:05:23;99691.31;;;7.28;53.15
8320;BME280;4197;42.130;24.746;2023-03-14T09:07:51;99677.94;;;7.40;53.04
8320;BME280;4197;42.130;24.746;2023-03-14T09:10:19;99679.47;;;7.50;51.68
8320;BME280;4197;42.130;24.746;2023-03-14T09:12:48;99685.16;;;7.27;50.00
8320;BME280;4197;42.130;24.746;2023-03-14T09:15:17;99674.66;;;7.26;50.96
8320;BME280;4197;42.130;24.746;2023-03-14T09:17:47;99678.53;;;7.46;50.15
8320;BME280;4197;42.130;24.746;2023-03-14T09:20:16;99658.41;;;7.64;51.03
8320;BME280;4197;42.130;24.746;2023-03-14T09:22:44;99663.03;;;7.64;52.20
8320;BME280;4197;42.130;24.746;2023-03-14T09:25:13;99655.06;;;7.88;51.48
8320;BME280;4197;42.130;24.746;2023-03-14T09:27:41;99653.31;;;8.04;50.97
8320;BME280;4197;42.130;24.746;2023-03-14T09:30:10;99642.31;;;8.10;50.55
8320;BME280;4197;42.130;24.746;2023-03-14T09:32:38;99633.19;;;8.14;50.94
8320;BME280;4197;42.130;24.746;2023-03-14T09:35:09;99636.06;;;8.30;50.77
8320;BME280;4197;42.130;24.746;2023-03-14T09:37:37;99629.50;;;8.52;48.24
8320;BME280;4197;42.130;24.746;2023-03-14T09:40:09;99623.84;;;8.45;47.92
8320;BME280;4197;42.130;24.746;2023-03-14T09:42:40;99631.91;;;8.33;47.45
8320;BME280;4197;42.130;24.746;2023-03-14T09:45:13;99623.34;;;8.31;47.77
8320;BME280;4197;42.130;24.746;2023-03-14T09:47:47;99615.19;;;8.39;47.67
8320;BME280;4197;42.130;24.746;2023-03-14T09:50:31;99615.91;;;8.61;47.10
8320;BME280;4197;42.130;24.746;2023-03-14T09:53:04;99604.88;;;8.66;46.70
8320;BME280;4197;42.130;24.746;2023-03-14T09:55:33;99624.03;;;8.73;45.84
8320;BME280;4197;42.130;24.746;2023-03-14T09:58:08;99611.72;;;8.76;45.63
8320;BME280;4197;42.130;24.746;2023-03-14T10:00:39;99615.69;;;8.66;45.97
8320;BME280;4197;42.130;24.746;2023-03-14T10:03:22;99609.16;;;8.79;46.21
8320;BME280;4197;42.130;24.746;2023-03-14T10:05:55;99602.41;;;8.85;45.66
8320;BME280;4197;42.130;24.746;2023-03-14T10:08:25;99601.25;;;8.86;46.29
8320;BME280;4197;42.130;24.746;2023-03-14T10:10:54;99594.50;;;9.05;46.10
8320;BME280;4197;42.130;24.746;2023-03-14T10:13:24;99581.97;;;9.12;44.98
8320;BME280;4197;42.130;24.746;2023-03-14T10:15:55;99571.38;;;8.95;44.62
8320;BME280;4197;42.130;24.746;2023-03-14T10:18:28;99566.84;;;9.11;44.48
8320;BME280;4197;42.130;24.746;2023-03-14T10:21:17;99566.94;;;9.40;43.61
8320;BME280;4197;42.130;24.746;2023-03-14T10:23:46;99552.72;;;9.43;43.69
8320;BME280;4197;42.130;24.746;2023-03-14T10:26:17;99546.78;;;9.53;43.71
8320;BME280;4197;42.130;24.746;2023-03-14T10:28:47;99542.91;;;9.66;44.38
8320;BME280;4197;42.130;24.746;2023-03-14T10:31:18;99547.34;;;9.87;44.64
8320;BME280;4197;42.130;24.746;2023-03-14T10:33:58;99539.69;;;10.04;44.50
8320;BME280;4197;42.130;24.746;2023-03-14T10:36:29;99538.47;;;10.18;43.48
8320;BME280;4197;42.130;24.746;2023-03-14T10:39:18;99526.56;;;10.22;43.27
8320;BME280;4197;42.130;24.746;2023-03-14T10:41:52;99520.78;;;10.08;42.86
8320;BME280;4197;42.130;24.746;2023-03-14T10:44:24;99514.88;;;10.18;42.71
8320;BME280;4197;42.130;24.746;2023-03-14T10:46:56;99505.09;;;10.30;42.65
8320;BME280;4197;42.130;24.746;2023-03-14T10:49:29;99498.53;;;10.15;43.06
8320;BME280;4197;42.130;24.746;2023-03-14T10:52:13;99493.69;;;10.08;42.91
8320;BME280;4197;42.130;24.746;2023-03-14T10:54:47;99488.47;;;10.15;43.53
8320;BME280;4197;42.130;24.746;2023-03-14T10:57:19;99489.53;;;10.26;44.10
8320;BME280;4197;42.130;24.746;2023-03-14T10:59:48;99478.88;;;10.34;43.27
8320;BME280;4197;42.130;24.746;2023-03-14T11:02:38;99477.81;;;10.54;43.87
8320;BME280;4197;42.130;24.746;2023-03-14T11:05:16;99471.13;;;10.67;43.56
8320;BME280;4197;42.130;24.746;2023-03-14T11:07:50;99452.28;;;10.75;42.90
8320;BME280;4197;42.130;24.746;2023-03-14T11:10:25;99450.72;;;10.74;42.91
8320;BME280;4197;42.130;24.746;2023-03-14T11:13:03;99443.31;;;10.70;43.45
8320;BME280;4197;42.130;24.746;2023-03-14T11:15:36;99434.41;;;10.89;43.24
8320;BME280;4197;42.130;24.746;2023-03-14T11:18:20;99426.34;;;10.93;42.75
8320;BME280;4197;42.130;24.746;2023-03-14T11:20:56;99422.63;;;11.01;42.87
8320;BME280;4197;42.130;24.746;2023-03-14T11:23:32;99417.53;;;11.00;41.50
8320;BME280;4197;42.130;24.746;2023-03-14T11:26:16;99405.63;;;10.85;41.20
8320;BME280;4197;42.130;24.746;2023-03-14T11:28:49;99397.06;;;10.83;42.39
8320;BME280;4197;42.130;24.746;2023-03-14T11:31:20;99390.56;;;10.68;41.63
8320;BME280;4197;42.130;24.746;2023-03-14T11:33:57;99384.13;;;10.76;41.32
8320;BME280;4197;42.130;24.746;2023-03-14T11:36:31;99377.56;;;10.97;41.00
8320;BME280;4197;42.130;24.746;2023-03-14T11:39:02;99364.94;;;11.04;42.50
8320;BME280;4197;42.130;24.746;2023-03-14T11:41:39;99362.13;;;11.20;42.42
8320;BME280;4197;42.130;24.746;2023-03-14T11:44:16;99351.63;;;11.42;41.29
8320;BME280;4197;42.130;24.746;2023-03-14T11:46:50;99341.91;;;11.64;40.71
8320;BME280;4197;42.130;24.746;2023-03-14T11:49:29;99331.06;;;11.64;40.44
8320;BME280;4197;42.130;24.746;2023-03-14T11:52:02;99331.69;;;11.53;41.13
8320;BME280;4197;42.130;24.746;2023-03-14T11:54:39;99314.44;;;11.42;41.29
8320;BME280;4197;42.130;24.746;2023-03-14T11:57:15;99307.97;;;11.50;41.76
8320;BME280;4197;42.130;24.746;2023-03-14T11:59:50;99297.22;;;11.57;42.07
8320;BME280;4197;42.130;24.746;2023-03-14T12:02:25;99293.50;;;11.69;40.80
8320;BME280;4197;42.130;24.746;2023-03-14T12:08:19;99265.56;;;11.69;41.72
8320;BME280;4197;42.130;24.746;2023-03-14T12:10:53;99267.50;;;11.68;40.80
8320;BME280;4197;42.130;24.746;2023-03-14T12:13:28;99251.78;;;11.54;41.35
8320;BME280;4197;42.130;24.746;2023-03-14T12:15:58;99242.16;;;11.60;41.76
8320;BME280;4197;42.130;24.746;2023-03-14T12:18:28;99244.44;;;11.85;41.83
8320;BME280;4197;42.130;24.746;2023-03-14T12:20:58;99244.34;;;12.04;41.60
8320;BME280;4197;42.130;24.746;2023-03-14T12:23:35;99235.88;;;11.83;41.63
8320;BME280;4197;42.130;24.746;2023-03-14T12:26:16;99229.53;;;11.98;42.21
8320;BME280;4197;42.130;24.746;2023-03-14T12:28:49;99219.00;;;12.27;41.29
8320;BME280;4197;42.130;24.746;2023-03-14T12:31:37;99219.25;;;12.15;41.73
8320;BME280;4197;42.130;24.746;2023-03-14T12:34:29;99216.56;;;11.88;42.29
8320;BME280;4197;42.130;24.746;2023-03-14T12:37:09;99210.19;;;11.77;42.87
8320;BME280;4197;42.130;24.746;2023-03-14T12:39:46;99207.56;;;11.84;42.52
8320;BME280;4197;42.130;24.746;2023-03-14T12:42:40;99202.78;;;12.00;42.61
8320;BME280;4197;42.130;24.746;2023-03-14T12:45:22;99208.53;;;12.29;41.81
8320;BME280;4197;42.130;24.746;2023-03-14T12:48:03;99200.88;;;12.04;42.68
8320;BME280;4197;42.130;24.746;2023-03-14T12:50:41;99193.91;;;12.07;43.15
8320;BME280;4197;42.130;24.746;2023-03-14T12:53:27;99185.16;;;12.21;42.91
8320;BME280;4197;42.130;24.746;2023-03-14T12:56:03;99183.00;;;12.37;42.51
8320;BME280;4197;42.130;24.746;2023-03-14T12:58:39;99182.50;;;12.65;42.44
8320;BME280;4197;42.130;24.746;2023-03-14T13:01:16;99176.97;;;12.55;42.29
8320;BME280;4197;42.130;24.746;2023-03-14T13:03:47;99174.69;;;12.60;42.36
8320;BME280;4197;42.130;24.746;2023-03-14T13:06:48;99169.31;;;12.64;41.95
8320;BME280;4197;42.130;24.746;2023-03-14T13:09:45;99164.56;;;12.57;42.32
8320;BME280;4197;42.130;24.746;2023-03-14T13:12:19;99165.34;;;12.58;42.39
8320;BME280;4197;42.130;24.746;2023-03-14T13:14:53;99160.53;;;12.85;41.80
8320;BME280;4197;42.130;24.746;2023-03-14T13:17:25;99157.38;;;12.79;41.93
8320;BME280;4197;42.130;24.746;2023-03-14T13:20:11;99157.41;;;12.83;41.20
8320;BME280;4197;42.130;24.746;2023-03-14T13:22:47;99153.66;;;12.54;42.26
8320;BME280;4197;42.130;24.746;2023-03-14T13:25:15;99143.88;;;12.49;41.93
8320;BME280;4197;42.130;24.746;2023-03-14T13:27:45;99134.72;;;12.64;41.94
8320;BME280;4197;42.130;24.746;2023-03-14T13:30:19;99142.59;;;12.80;42.28
8320;BME280;4197;42.130;24.746;2023-03-14T13:32:50;99133.38;;;12.92;41.04
8320;BME280;4197;42.130;24.746;2023-03-14T13:35:22;99130.66;;;12.92;41.08
8320;BME280;4197;42.130;24.746;2023-03-14T13:37:56;99132.97;;;12.90;40.53
8320;BME280;4197;42.130;24.746;2023-03-14T13:40:37;99118.59;;;12.89;40.59
8320;BME280;4197;42.130;24.746;2023-03-14T13:43:14;99118.81;;;12.70;40.84
8320;BME280;4197;42.130;24.746;2023-03-14T13:45:50;99107.22;;;12.77;40.89
8320;BME280;4197;42.130;24.746;2023-03-14T13:48:20;99094.72;;;12.68;41.37